sensor_id;sensor_type;location;lat;lon;timestamp;pressure;altitude;pressure_sealevel;temperature;humidity
41264;BME280;26998;48.714;9.414;2022-09-17T00:00:38;98380.53;;;9.56;100.00
41264;BME280;26998;48.714;9.414;2022-09-17T00:03:05;98382.16;;;9.50;100.00
41264;BME280;26998;48.714;9.414;2022-09-17T00:05:32;98380.34;;;9.57;100.00
41264;BME280;26998;48.714;9.414;2022-09-17T00:07:59;98379.72;;;9.55;100.00
41264;BME280;26998;48.714;9.414;2022-09-17T00:10:25;98377.03;;;9.55;100.00
41264;BME280;26998;48.714;9.414;2022-09-17T00:12:52;98383.00;;;9.57;100.00
41264;BME280;26998;48.714;9.414;2022-09-17T00:15:19;98383.19;;;9.49;100.00
41264;BME280;26998;48.714;9.414;2022-09-17T00:17:45;98384.22;;;9.48;100.00
41264;BME280;26998;48.714;9.414;2022-09-17T00:20:12;98380.31;;;9.44;100.00
41264;BME280;26998;48.714;9.414;2022-09-17T00:22:39;98385.44;;;9.39;100.00
41264;BME280;26998;48.714;9.414;2022-09-17T00:25:06;98382.53;;;9.34;100.00
41264;BME280;26998;48.714;9.414;2022-09-17T00:27:33;98395.47;;;9.37;100.00
41264;BME280;26998;48.714;9.414;2022-09-17T00:29:59;98394.03;;;9.34;100.00
41264;BME280;26998;48.714;9.414;2022-09-17T00:32:26;98387.06;;;9.33;100.00
41264;BME280;26998;48.714;9.414;2022-09-17T00:34:53;98389.09;;;9.31;100.00
41264;BME280;26998;48.714;9.414;2022-09-17T00:37:19;98394.63;;;9.30;100.00
41264;BME280;26998;48.714;9.414;2022-09-17T00:39:46;98387.84;;;9.27;100.00
41264;BME280;26998;48.714;9.414;2022-09-17T00:42:13;98392.16;;;9.28;100.00
41264;BME280;26998;48.714;9.414;2022-09-17T00:49:45;98382.34;;;9.29;100.00
41264;BME280;26998;48.714;9.414;2022-09-17T00:52:18;98392.38;;;9.33;100.00
41264;BME280;26998;48.714;9.414;2022-09-17T00:54:53;98391.97;;;9.36;100.00
41264;BME280;26998;48.714;9.414;2022-09-17T00:57:20;98389.94;;;9.32;100.00
41264;BME280;26998;48.714;9.414;2022-09-17T00:59:47;98382.75;;;9.39;100.00
41264;BME280;26998;48.714;9.414;2022-09-17T01:02:14;98384.63;;;9.38;100.00
41264;BME280;26998;48.714;9.414;2022-09-17T01:04:40;98391.16;;;9.29;100.00
41264;BME280;26998;48.714;9.414;2022-09-17T01:12:43;98403.00;;;9.13;100.00
41264;BME280;26998;48.714;9.414;2022-09-17T01:15:41;98402.38;;;9.11;100.00
41264;BME280;26998;48.714;9.414;2022-09-17T01:18:31;98407.06;;;9.09;100.00
41264;BME280;26998;48.714;9.414;2022-09-17T01:26:39;98406.66;;;9.06;100.00
41264;BME280;26998;48.714;9.414;2022-09-17T01:29:51;98410.94;;;9.00;100.00
41264;BME280;26998;48.714;9.414;2022-09-17T01:32:41;98414.47;;;9.07;100.00
41264;BME280;26998;48.714;9.414;2022-09-17T01:38:10;98408.91;;;9.09;100.00
41264;BME280;26998;48.714;9.414;2022-09-17T01:40:50;98421.25;;;9.10;100.00
41264;BME280;26998;48.714;9.414;2022-09-17T01:43:23;98415.91;;;9.10;100.00
41264;BME280;26998;48.714;9.414;2022-09-17T01:45:57;98413.66;;;9.07;100.00
41264;BME280;26998;48.714;9.414;2022-09-17T01:48:31;98412.38;;;9.02;100.00
41264;BME280;26998;48.714;9.414;2022-09-17T01:51:10;98411.16;;;9.05;100.00
41264;BME280;26998;48.714;9.414;2022-09-17T01:53:49;98411.97;;;9.06;100.00
41264;BME280;26998;48.714;9.414;2022-09-17T01:56:25;98412.41;;;9.09;100.00
41264;BME280;26998;48.714;9.414;2022-09-17T01:59:00;98417.13;;;9.07;100.00
41264;BME280;26998;48.714;9.414;2022-09-17T02:01:29;98413.25;;;9.10;100.00
41264;BME280;26998;48.714;9.414;2022-09-17T02:04:05;98415.69;;;9.11;100.00
41264;BME280;26998;48.714;9.414;2022-09-17T02:06:39;98419.81;;;9.14;100.00
41264;BME280;26998;48.714;9.414;2022-09-17T02:09:17;98420.84;;;9.13;100.00
41264;BME280;26998;48.714;9.414;2022-09-17T02:11:50;98422.69;;;9.19;100.00
41264;BME280;26998;48.714;9.414;2022-09-17T02:14:26;98423.50;;;9.13;100.00
41264;BME280;26998;48.714;9.414;2022-09-17T02:16:58;98419.59;;;9.15;100.00
41264;BME280;26998;48.714;9.414;2022-09-17T02:19:28;98416.53;;;9.18;100.00
41264;BME280;26998;48.714;9.414;2022-09-17T02:24:46;98414.91;;;9.17;100.00
41264;BME280;26998;48.714;9.414;2022-09-17T02:29:57;98411.84;;;9.20;100.00
41264;BME280;26998;48.714;9.414;2022-09-17T02:32:23;98410.00;;;9.21;100.00
41264;BME280;26998;48.714;9.414;2022-09-17T02:34:50;98411.44;;;9.23;100.00
41264;BME280;26998;48.714;9.414;2022-09-17T02:37:16;98401.81;;;9.22;100.00
41264;BME280;26998;48.714;9.414;2022-09-17T02:39:43;98406.91;;;9.24;100.00
41264;BME280;26998;48.714;9.414;2022-09-17T02:44:59;98395.81;;;9.14;100.00
41264;BME280;26998;48.714;9.414;2022-09-17T02:47:55;98389.84;;;9.05;100.00
41264;BME280;26998;48.714;9.414;2022-09-17T02:53:51;98384.91;;;9.02;100.00
41264;BME280;26998;48.714;9.414;2022-09-17T02:56:29;98383.66;;;8.98;100.00
41264;BME280;26998;48.714;9.414;2022-09-17T02:59:18;98383.44;;;8.93;100.00
41264;BME280;26998;48.714;9.414;2022-09-17T03:04:32;98397.75;;;8.85;100.00
41264;BME280;26998;48.714;9.414;2022-09-17T03:07:04;98401.25;;;8.86;100.00
41264;BME280;26998;48.714;9.414;2022-09-17T03:09:32;98393.00;;;8.81;100.00
41264;BME280;26998;48.714;9.414;2022-09-17T03:11:58;98393.41;;;8.77;100.00
41264;BME280;26998;48.714;9.414;2022-09-17T03:14:25;98389.75;;;8.78;100.00
41264;BME280;26998;48.714;9.414;2022-09-17T03:16:51;98396.72;;;8.79;100.00
41264;BME280;26998;48.714;9.414;2022-09-17T03:19:18;98387.06;;;8.78;100.00
41264;BME280;26998;48.714;9.414;2022-09-17T03:21:45;98378.88;;;8.80;100.00
41264;BME280;26998;48.714;9.414;2022-09-17T03:24:11;98383.34;;;8.73;100.00
41264;BME280;26998;48.714;9.414;2022-09-17T03:26:38;98391.31;;;8.66;100.00
41264;BME280;26998;48.714;9.414;2022-09-17T03:29:04;98394.97;;;8.65;100.00
41264;BME280;26998;48.714;9.414;2022-09-17T03:31:31;98398.66;;;8.64;100.00
41264;BME280;26998;48.714;9.414;2022-09-17T03:33:57;98402.78;;;8.67;100.00
41264;BME280;26998;48.714;9.414;2022-09-17T03:36:24;98402.53;;;8.62;100.00
41264;BME280;26998;48.714;9.414;2022-09-17T03:38:57;98406.41;;;8.59;100.00
41264;BME280;26998;48.714;9.414;2022-09-17T03:41:24;98411.94;;;8.51;100.00
41264;BME280;26998;48.714;9.414;2022-09-17T03:43:51;98410.03;;;8.45;100.00
41264;BME280;26998;48.714;9.414;2022-09-17T03:46:18;98414.94;;;8.41;100.00
41264;BME280;26998;48.714;9.414;2022-09-17T03:48:45;98420.16;;;8.34;100.00
41264;BME280;26998;48.714;9.414;2022-09-17T03:51:12;98418.00;;;8.38;100.00
41264;BME280;26998;48.714;9.414;2022-09-17T03:53:38;98415.75;;;8.42;100.00
41264;BME280;26998;48.714;9.414;2022-09-17T03:56:05;98407.94;;;8.40;100.00
41264;BME280;26998;48.714;9.414;2022-09-17T03:58:33;98415.16;;;8.46;100.00
41264;BME280;26998;48.714;9.414;2022-09-17T04:00:59;98409.66;;;8.48;100.00
41264;BME280;26998;48.714;9.414;2022-09-17T04:03:27;98407.59;;;8.50;100.00
41264;BME280;26998;48.714;9.414;2022-09-17T04:05:53;98420.31;;;8.48;100.00
41264;BME280;26998;48.714;9.414;2022-09-17T04:08:20;98420.72;;;8.51;100.00
41264;BME280;26998;48.714;9.414;2022-09-17T04:10:47;98418.66;;;8.53;100.00
41264;BME280;26998;48.714;9.414;2022-09-17T04:13:15;98411.31;;;8.55;100.00
41264;BME280;26998;48.714;9.414;2022-09-17T04:15:41;98415.00;;;8.54;100.00
41264;BME280;26998;48.714;9.414;2022-09-17T04:18:08;98414.38;;;8.52;100.00
41264;BME280;26998;48.714;9.414;2022-09-17T04:20:35;98412.31;;;8.48;100.00
41264;BME280;26998;48.714;9.414;2022-09-17T04:23:02;98415.97;;;8.47;100.00
41264;BME280;26998;48.714;9.414;2022-09-17T04:25:29;98420.31;;;8.48;100.00
41264;BME280;26998;48.714;9.414;2022-09-17T04:27:55;98422.16;;;8.47;100.00
41264;BME280;26998;48.714;9.414;2022-09-17T04:30:22;98424.16;;;8.45;100.00
41264;BME280;26998;48.714;9.414;2022-09-17T04:32:48;98422.53;;;8.44;100.00
41264;BME280;26998;48.714;9.414;2022-09-17T04:35:15;98425.63;;;8.48;100.00
41264;BME280;26998;48.714;9.414;2022-09-17T04:37:42;98429.75;;;8.50;100.00
41264;BME280;26998;48.714;9.414;2022-09-17T04:40:09;98431.56;;;8.50;100.00
41264;BME280;26998;48.714;9.414;2022-09-17T04:42:35;98442.44;;;8.48;100.00
41264;BME280;26998;48.714;9.414;2022-09-17T04:45:02;98449.22;;;8.51;100.00
41264;BME280;26998;48.714;9.414;2022-09-17T04:47:28;98442.84;;;8.52;100.00
41264;BME280;26998;48.714;9.414;2022-09-17T04:49:55;98444.50;;;8.53;100.00
41264;BME280;26998;48.714;9.414;2022-09-17T04:52:21;98444.91;;;8.56;100.00
41264;BME280;26998;48.714;9.414;2022-09-17T04:54:52;98447.19;;;8.60;100.00
41264;BME280;26998;48.714;9.414;2022-09-17T04:57:19;98439.84;;;8.62;100.00
41264;BME280;26998;48.714;9.414;2022-09-17T04:59:46;98448.06;;;8.67;100.00
41264;BME280;26998;48.714;9.414;2022-09-17T05:02:12;98456.28;;;8.72;100.00
41264;BME280;26998;48.714;9.414;2022-09-17T05:04:39;98458.16;;;8.78;100.00
41264;BME280;26998;48.714;9.414;2022-09-17T05:07:05;98463.75;;;8.83;100.00
41264;BME280;26998;48.714;9.414;2022-09-17T05:09:37;98464.56;;;8.84;100.00
41264;BME280;26998;48.714;9.414;2022-09-17T05:12:03;98464.16;;;8.87;100.00
41264;BME280;26998;48.714;9.414;2022-09-17T05:14:30;98470.56;;;8.92;100.00
41264;BME280;26998;48.714;9.414;2022-09-17T05:16:56;98466.88;;;8.93;100.00
41264;BME280;26998;48.714;9.414;2022-09-17T05:19:23;98466.47;;;8.96;100.00
41264;BME280;26998;48.714;9.414;2022-09-17T05:21:49;98472.88;;;9.02;100.00
41264;BME280;26998;48.714;9.414;2022-09-17T05:24:16;98469.63;;;9.07;100.00
41264;BME280;26998;48.714;9.414;2022-09-17T05:26:42;98466.31;;;9.05;100.00
41264;BME280;26998;48.714;9.414;2022-09-17T05:29:09;98457.97;;;9.14;100.00
41264;BME280;26998;48.714;9.414;2022-09-17T05:31:35;98455.72;;;9.18;100.00
41264;BME280;26998;48.714;9.414;2022-09-17T05:34:02;98457.34;;;9.19;100.00
41264;BME280;26998;48.714;9.414;2022-09-17T05:36:28;98458.63;;;9.30;100.00
41264;BME280;26998;48.714;9.414;2022-09-17T05:38:55;98461.06;;;9.24;100.00
41264;BME280;26998;48.714;9.414;2022-09-17T05:41:21;98455.75;;;9.31;100.00
41264;BME280;26998;48.714;9.414;2022-09-17T05:43:48;98460.69;;;9.34;100.00
41264;BME280;26998;48.714;9.414;2022-09-17T05:46:14;98465.81;;;9.29;100.00
41264;BME280;26998;48.714;9.414;2022-09-17T05:48:40;98464.38;;;9.33;100.00
41264;BME280;26998;48.714;9.414;2022-09-17T05:51:07;98469.09;;;9.31;100.00
41264;BME280;26998;48.714;9.414;2022-09-17T05:53:34;98470.38;;;9.42;100.00
41264;BME280;26998;48.714;9.414;2022-09-17T05:56:00;98463.34;;;9.34;100.00
41264;BME280;26998;48.714;9.414;2022-09-17T05:58:27;98472.22;;;9.35;100.00
41264;BME280;26998;48.714;9.414;2022-09-17T06:00:53;98470.38;;;9.42;100.00
41264;BME280;26998;48.714;9.414;2022-09-17T06:03:22;98486.63;;;9.47;100.00
41264;BME280;26998;48.714;9.414;2022-09-17T06:05:57;98490.72;;;9.49;100.00
41264;BME280;26998;48.714;9.414;2022-09-17T06:08:26;98495.03;;;9.44;100.00
41264;BME280;26998;48.714;9.414;2022-09-17T06:10:53;98490.13;;;9.54;100.00
41264;BME280;26998;48.714;9.414;2022-09-17T06:13:24;98494.03;;;9.65;100.00
41264;BME280;26998;48.714;9.414;2022-09-17T06:15:52;98499.34;;;9.52;100.00
41264;BME280;26998;48.714;9.414;2022-09-17T06:18:19;98494.06;;;9.71;100.00
41264;BME280;26998;48.714;9.414;2022-09-17T06:20:53;98496.78;;;9.78;100.00
41264;BME280;26998;48.714;9.414;2022-09-17T06:23:20;98496.38;;;9.88;100.00
41264;BME280;26998;48.714;9.414;2022-09-17T06:25:57;98500.69;;;9.89;100.00
41264;BME280;26998;48.714;9.414;2022-09-17T06:28:25;98501.09;;;9.86;100.00
41264;BME280;26998;48.714;9.414;2022-09-17T06:30:52;98496.38;;;9.81;100.00
41264;BME280;26998;48.714;9.414;2022-09-17T06:33:20;98499.22;;;9.80;100.00
41264;BME280;26998;48.714;9.414;2022-09-17T06:35:46;98499.63;;;9.77;100.00
41264;BME280;26998;48.714;9.414;2022-09-17T06:38:13;98496.78;;;9.85;100.00
41264;BME280;26998;48.714;9.414;2022-09-17T06:40:40;98494.72;;;9.87;100.00
41264;BME280;26998;48.714;9.414;2022-09-17T06:43:06;98498.41;;;9.86;100.00
41264;BME280;26998;48.714;9.414;2022-09-17T06:45:33;98507.84;;;9.82;100.00
41264;BME280;26998;48.714;9.414;2022-09-17T06:48:02;98513.81;;;9.84;100.00
41264;BME280;26998;48.714;9.414;2022-09-17T06:50:29;98511.75;;;9.79;100.00
41264;BME280;26998;48.714;9.414;2022-09-17T06:52:56;98504.78;;;9.78;100.00
41264;BME280;26998;48.714;9.414;2022-09-17T06:55:22;98513.75;;;9.64;100.00
41264;BME280;26998;48.714;9.414;2022-09-17T06:57:49;98516.81;;;9.61;100.00
41264;BME280;26998;48.714;9.414;2022-09-17T07:00:16;98513.94;;;9.62;100.00
41264;BME280;26998;48.714;9.414;2022-09-17T07:02:42;98507.78;;;9.62;100.00
41264;BME280;26998;48.714;9.414;2022-09-17T07:05:09;98518.69;;;9.67;100.00
41264;BME280;26998;48.714;9.414;2022-09-17T07:07:35;98516.84;;;9.67;100.00
41264;BME280;26998;48.714;9.414;2022-09-17T07:10:02;98516.66;;;9.76;100.00
41264;BME280;26998;48.714;9.414;2022-09-17T07:12:28;98523.06;;;9.81;100.00
41264;BME280;26998;48.714;9.414;2022-09-17T07:14:55;98519.53;;;9.81;100.00
41264;BME280;26998;48.714;9.414;2022-09-17T07:17:21;98522.19;;;9.81;100.00
41264;BME280;26998;48.714;9.414;2022-09-17T07:19:48;98533.09;;;9.73;100.00
41264;BME280;26998;48.714;9.414;2022-09-17T07:22:14;98526.94;;;9.79;100.00
41264;BME280;26998;48.714;9.414;2022-09-17T07:24:41;98522.59;;;9.71;100.00
41264;BME280;26998;48.714;9.414;2022-09-17T07:27:07;98532.03;;;9.67;100.00
41264;BME280;26998;48.714;9.414;2022-09-17T07:29:34;98522.81;;;9.69;100.00
41264;BME280;26998;48.714;9.414;2022-09-17T07:32:01;98534.69;;;9.67;100.00
41264;BME280;26998;48.714;9.414;2022-09-17T07:34:27;98535.50;;;9.61;100.00
41264;BME280;26998;48.714;9.414;2022-09-17T07:36:54;98535.13;;;9.70;100.00
41264;BME280;26998;48.714;9.414;2022-09-17T07:39:20;98537.34;;;9.60;100.00
41264;BME280;26998;48.714;9.414;2022-09-17T07:41:47;98535.13;;;9.70;100.00
41264;BME280;26998;48.714;9.414;2022-09-17T07:44:14;98540.63;;;9.62;100.00
41264;BME280;26998;48.714;9.414;2022-09-17T07:46:40;98549.00;;;9.53;100.00
41264;BME280;26998;48.714;9.414;2022-09-17T07:49:07;98556.78;;;9.47;100.00
41264;BME280;26998;48.714;9.414;2022-09-17T07:51:36;98567.19;;;9.36;100.00
41264;BME280;26998;48.714;9.414;2022-09-17T07:54:02;98569.47;;;9.39;100.00
41264;BME280;26998;48.714;9.414;2022-09-17T07:56:29;98569.41;;;9.25;100.00
41264;BME280;26998;48.714;9.414;2022-09-17T07:58:56;98572.63;;;9.21;100.00
41264;BME280;26998;48.714;9.414;2022-09-17T08:01:22;98579.56;;;9.15;100.00
41264;BME280;26998;48.714;9.414;2022-09-17T08:03:51;98586.47;;;9.03;100.00
41264;BME280;26998;48.714;9.414;2022-09-17T08:06:21;98594.38;;;8.90;100.00
41264;BME280;26998;48.714;9.414;2022-09-17T08:08:48;98596.22;;;8.89;100.00
41264;BME280;26998;48.714;9.414;2022-09-17T08:11:17;98595.91;;;9.06;100.00
41264;BME280;26998;48.714;9.414;2022-09-17T08:14:04;98599.75;;;8.96;100.00
41264;BME280;26998;48.714;9.414;2022-09-17T08:16:30;98603.31;;;9.04;100.00
41264;BME280;26998;48.714;9.414;2022-09-17T08:18:57;98614.66;;;9.19;100.00
41264;BME280;26998;48.714;9.414;2022-09-17T08:21:23;98608.63;;;9.04;100.00
41264;BME280;26998;48.714;9.414;2022-09-17T08:23:50;98600.34;;;8.92;100.00
41264;BME280;26998;48.714;9.414;2022-09-17T08:26:19;98604.31;;;9.02;100.00
41264;BME280;26998;48.714;9.414;2022-09-17T08:28:48;98601.03;;;9.00;100.00
41264;BME280;26998;48.714;9.414;2022-09-17T08:31:18;98608.81;;;9.02;100.00
41264;BME280;26998;48.714;9.414;2022-09-17T08:33:46;98610.53;;;9.10;100.00
41264;BME280;26998;48.714;9.414;2022-09-17T08:36:14;98601.69;;;9.09;100.00
41264;BME280;26998;48.714;9.414;2022-09-17T08:38:41;98608.94;;;9.22;100.00
41264;BME280;26998;48.714;9.414;2022-09-17T08:46:32;98606.88;;;9.17;100.00
41264;BME280;26998;48.714;9.414;2022-09-17T08:49:11;98616.66;;;9.38;100.00
41264;BME280;26998;48.714;9.414;2022-09-17T09:00:15;98611.06;;;9.75;100.00
41264;BME280;26998;48.714;9.414;2022-09-17T09:05:23;98611.16;;;9.88;100.00
41264;BME280;26998;48.714;9.414;2022-09-17T09:08:01;98598.00;;;9.93;100.00
41264;BME280;26998;48.714;9.414;2022-09-17T09:10:53;98597.22;;;9.99;100.00
41264;BME280;26998;48.714;9.414;2022-09-17T09:13:27;98592.13;;;10.11;100.00
41264;BME280;26998;48.714;9.414;2022-09-17T09:16:16;98589.50;;;10.31;100.00
41264;BME280;26998;48.714;9.414;2022-09-17T09:18:49;98597.78;;;10.56;100.00
41264;BME280;26998;48.714;9.414;2022-09-17T09:21:34;98592.22;;;10.51;100.00
41264;BME280;26998;48.714;9.414;2022-09-17T09:24:24;98592.25;;;10.57;100.00
41264;BME280;26998;48.714;9.414;2022-09-17T09:35:29;98584.81;;;10.53;100.00
41264;BME280;26998;48.714;9.414;2022-09-17T09:41:15;98578.69;;;10.79;100.00
41264;BME280;26998;48.714;9.414;2022-09-17T09:43:49;98591.81;;;10.80;100.00
41264;BME280;26998;48.714;9.414;2022-09-17T09:46:49;98578.66;;;10.85;100.00
41264;BME280;26998;48.714;9.414;2022-09-17T09:49:40;98581.13;;;11.00;100.00
41264;BME280;26998;48.714;9.414;2022-09-17T09:52:22;98584.22;;;10.97;100.00
41264;BME280;26998;48.714;9.414;2022-09-17T09:58:02;98584.84;;;10.86;100.00
41264;BME280;26998;48.714;9.414;2022-09-17T10:00:35;98581.16;;;10.94;100.00
41264;BME280;26998;48.714;9.414;2022-09-17T10:05:53;98578.03;;;11.10;100.00
41264;BME280;26998;48.714;9.414;2022-09-17T10:08:21;98571.22;;;11.14;100.00
41264;BME280;26998;48.714;9.414;2022-09-17T10:11:03;98577.41;;;11.08;100.00
41264;BME280;26998;48.714;9.414;2022-09-17T10:13:33;98584.63;;;10.94;100.00
41264;BME280;26998;48.714;9.414;2022-09-17T10:16:23;98586.47;;;10.87;100.00
41264;BME280;26998;48.714;9.414;2022-09-17T10:19:11;98589.78;;;10.69;100.00
41264;BME280;26998;48.714;9.414;2022-09-17T10:21:40;98583.19;;;10.65;100.00
41264;BME280;26998;48.714;9.414;2022-09-17T10:24:23;98588.56;;;10.72;100.00
41264;BME280;26998;48.714;9.414;2022-09-17T10:26:52;98581.94;;;10.81;100.00
41264;BME280;26998;48.714;9.414;2022-09-17T10:29:25;98580.94;;;10.69;100.00
41264;BME280;26998;48.714;9.414;2022-09-17T10:31:54;98584.03;;;10.79;100.00
41264;BME280;26998;48.714;9.414;2022-09-17T10:34:30;98584.00;;;11.05;100.00
41264;BME280;26998;48.714;9.414;2022-09-17T10:36:58;98587.25;;;11.27;100.00
41264;BME280;26998;48.714;9.414;2022-09-17T10:39:36;98577.19;;;11.23;100.00
41264;BME280;26998;48.714;9.414;2022-09-17T10:44:36;98571.41;;;11.26;100.00
41264;BME280;26998;48.714;9.414;2022-09-17T10:49:47;98574.16;;;11.71;100.00
41264;BME280;26998;48.714;9.414;2022-09-17T10:52:26;98570.81;;;11.89;100.00
41264;BME280;26998;48.714;9.414;2022-09-17T10:55:25;98556.34;;;12.85;95.66
41264;BME280;26998;48.714;9.414;2022-09-17T11:01:17;98556.25;;;12.48;91.42
41264;BME280;26998;48.714;9.414;2022-09-17T11:21:26;98535.19;;;12.52;80.37
41264;BME280;26998;48.714;9.414;2022-09-17T11:24:03;98539.22;;;12.61;77.79
41264;BME280;26998;48.714;9.414;2022-09-17T11:26:41;98528.34;;;12.81;76.33
41264;BME280;26998;48.714;9.414;2022-09-17T11:32:06;98537.53;;;12.91;74.09
41264;BME280;26998;48.714;9.414;2022-09-17T11:34:57;98531.22;;;13.23;71.33
41264;BME280;26998;48.714;9.414;2022-09-17T11:40:38;98538.56;;;13.34;69.61
41264;BME280;26998;48.714;9.414;2022-09-17T11:43:19;98523.84;;;13.55;70.02
41264;BME280;26998;48.714;9.414;2022-09-17T11:46:24;98526.34;;;13.38;66.99
41264;BME280;26998;48.714;9.414;2022-09-17T11:51:18;98521.31;;;13.23;63.42
41264;BME280;26998;48.714;9.414;2022-09-17T11:53:53;98525.66;;;13.24;65.09
41264;BME280;26998;48.714;9.414;2022-09-17T12:02:20;98509.25;;;13.99;64.32
41264;BME280;26998;48.714;9.414;2022-09-17T12:04:52;98513.34;;;14.02;63.28
41264;BME280;26998;48.714;9.414;2022-09-17T12:07:30;98512.34;;;13.84;63.49
41264;BME280;26998;48.714;9.414;2022-09-17T12:10:50;98510.03;;;13.70;64.20
41264;BME280;26998;48.714;9.414;2022-09-17T12:13:26;98515.50;;;13.63;62.40
41264;BME280;26998;48.714;9.414;2022-09-17T12:16:17;98507.69;;;13.61;60.90
41264;BME280;26998;48.714;9.414;2022-09-17T12:18:50;98508.81;;;13.54;60.42
41264;BME280;26998;48.714;9.414;2022-09-17T12:21:22;98498.75;;;13.49;61.37
41264;BME280;26998;48.714;9.414;2022-09-17T12:24:02;98505.19;;;13.23;60.64
41264;BME280;26998;48.714;9.414;2022-09-17T12:32:00;98483.28;;;12.89;73.42
41264;BME280;26998;48.714;9.414;2022-09-17T12:34:36;98478.72;;;12.71;76.81
41264;BME280;26998;48.714;9.414;2022-09-17T12:40:25;98473.63;;;12.63;80.65
41264;BME280;26998;48.714;9.414;2022-09-17T12:49:18;98485.66;;;12.79;87.90
41264;BME280;26998;48.714;9.414;2022-09-17T12:51:55;98512.53;;;12.47;90.51
41264;BME280;26998;48.714;9.414;2022-09-17T12:57:41;98533.75;;;11.21;100.00
41264;BME280;26998;48.714;9.414;2022-09-17T13:00:13;98516.72;;;11.08;100.00
41264;BME280;26998;48.714;9.414;2022-09-17T13:03:23;98511.50;;;11.33;100.00
41264;BME280;26998;48.714;9.414;2022-09-17T13:14:36;98525.00;;;11.59;100.00
41264;BME280;26998;48.714;9.414;2022-09-17T13:17:22;98533.84;;;11.66;100.00
41264;BME280;26998;48.714;9.414;2022-09-17T13:20:04;98535.88;;;11.64;100.00
41264;BME280;26998;48.714;9.414;2022-09-17T13:22:46;98542.66;;;11.73;100.00
41264;BME280;26998;48.714;9.414;2022-09-17T13:25:16;98541.28;;;11.57;100.00
41264;BME280;26998;48.714;9.414;2022-09-17T13:27:45;98542.72;;;11.46;100.00
41264;BME280;26998;48.714;9.414;2022-09-17T13:30:16;98552.06;;;11.37;100.00
41264;BME280;26998;48.714;9.414;2022-09-17T13:32:45;98551.66;;;11.27;100.00
41264;BME280;26998;48.714;9.414;2022-09-17T13:40:29;98553.31;;;11.15;98.47
41264;BME280;26998;48.714;9.414;2022-09-17T13:43:17;98555.00;;;11.16;97.29
41264;BME280;26998;48.714;9.414;2022-09-17T13:48:26;98565.91;;;11.07;100.00
41264;BME280;26998;48.714;9.414;2022-09-17T13:50:54;98565.72;;;10.89;100.00
41264;BME280;26998;48.714;9.414;2022-09-17T13:53:24;98565.09;;;11.00;100.00
41264;BME280;26998;48.714;9.414;2022-09-17T13:55:52;98565.69;;;10.96;100.00
41264;BME280;26998;48.714;9.414;2022-09-17T14:00:58;98563.44;;;10.99;100.00
41264;BME280;26998;48.714;9.414;2022-09-17T14:05:54;98556.88;;;11.67;100.00
41264;BME280;26998;48.714;9.414;2022-09-17T14:08:28;98554.25;;;11.53;100.00
41264;BME280;26998;48.714;9.414;2022-09-17T14:10:59;98552.69;;;11.26;100.00
41264;BME280;26998;48.714;9.414;2022-09-17T14:13:41;98562.50;;;11.45;100.00
41264;BME280;26998;48.714;9.414;2022-09-17T14:35:28;98546.16;;;12.12;100.00
41264;BME280;26998;48.714;9.414;2022-09-17T14:37:59;98551.66;;;12.23;100.00
41264;BME280;26998;48.714;9.414;2022-09-17T14:40:29;98545.00;;;12.33;100.00
41264;BME280;26998;48.714;9.414;2022-09-17T14:42:58;98543.41;;;12.57;98.88
41264;BME280;26998;48.714;9.414;2022-09-17T14:45:32;98531.69;;;12.76;96.49
41264;BME280;26998;48.714;9.414;2022-09-17T14:48:35;98535.47;;;13.12;92.12
41264;BME280;26998;48.714;9.414;2022-09-17T14:51:21;98531.72;;;12.94;90.20
41264;BME280;26998;48.714;9.414;2022-09-17T14:56:56;98523.22;;;13.41;89.34
41264;BME280;26998;48.714;9.414;2022-09-17T14:59:36;98520.34;;;13.54;91.15
41264;BME280;26998;48.714;9.414;2022-09-17T15:02:21;98519.13;;;13.13;87.62
41264;BME280;26998;48.714;9.414;2022-09-17T15:04:49;98527.25;;;13.07;88.63
41264;BME280;26998;48.714;9.414;2022-09-17T15:07:15;98528.78;;;12.78;89.07
41264;BME280;26998;48.714;9.414;2022-09-17T15:09:42;98519.31;;;12.75;89.39
41264;BME280;26998;48.714;9.414;2022-09-17T15:12:08;98522.19;;;12.74;91.50
41264;BME280;26998;48.714;9.414;2022-09-17T15:14:38;98518.88;;;12.53;91.21
41264;BME280;26998;48.714;9.414;2022-09-17T15:17:05;98522.56;;;12.59;92.80
41264;BME280;26998;48.714;9.414;2022-09-17T15:19:35;98524.81;;;12.62;90.87
41264;BME280;26998;48.714;9.414;2022-09-17T15:22:13;98520.56;;;12.73;90.06
41264;BME280;26998;48.714;9.414;2022-09-17T15:27:21;98523.66;;;12.94;90.60
41264;BME280;26998;48.714;9.414;2022-09-17T15:32:58;98514.56;;;12.95;90.92
41264;BME280;26998;48.714;9.414;2022-09-17T15:35:29;98514.25;;;12.85;91.04
41264;BME280;26998;48.714;9.414;2022-09-17T15:37:58;98516.31;;;12.65;93.74
41264;BME280;26998;48.714;9.414;2022-09-17T15:40:46;98520.31;;;12.56;94.61
41264;BME280;26998;48.714;9.414;2022-09-17T15:43:34;98517.47;;;12.51;98.44
41264;BME280;26998;48.714;9.414;2022-09-17T15:48:46;98525.88;;;12.29;100.00
41264;BME280;26998;48.714;9.414;2022-09-17T15:51:34;98521.59;;;12.21;100.00
41264;BME280;26998;48.714;9.414;2022-09-17T15:54:05;98515.97;;;12.30;100.00
41264;BME280;26998;48.714;9.414;2022-09-17T15:56:33;98517.44;;;12.25;100.00
41264;BME280;26998;48.714;9.414;2022-09-17T16:04:29;98520.84;;;12.39;100.00
41264;BME280;26998;48.714;9.414;2022-09-17T16:07:15;98534.66;;;12.36;100.00
41264;BME280;26998;48.714;9.414;2022-09-17T16:09:50;98524.63;;;12.57;98.35
41264;BME280;26998;48.714;9.414;2022-09-17T16:12:25;98521.00;;;12.69;90.09
41264;BME280;26998;48.714;9.414;2022-09-17T16:14:54;98527.41;;;12.93;87.20
41264;BME280;26998;48.714;9.414;2022-09-17T16:17:32;98523.50;;;12.89;84.24
41264;BME280;26998;48.714;9.414;2022-09-17T16:20:06;98517.22;;;12.77;83.92
41264;BME280;26998;48.714;9.414;2022-09-17T16:22:33;98518.59;;;12.61;84.70
41264;BME280;26998;48.714;9.414;2022-09-17T16:25:00;98526.13;;;12.53;86.26